sensor_id;sensor_type;location;lat;lon;timestamp;temperature;humidity
3548;DHT22;1788;49.400;11.092;2023-11-21T00:02:22;11.10;68.00
3548;DHT22;1788;49.400;11.092;2023-11-21T00:04:49;11.00;67.90
3548;DHT22;1788;49.400;11.092;2023-11-21T00:07:16;11.00;67.90
3548;DHT22;1788;49.400;11.092;2023-11-21T00:09:42;11.00;67.90
3548;DHT22;1788;49.400;11.092;2023-11-21T00:12:09;11.00;67.90
3548;DHT22;1788;49.400;11.092;2023-11-21T00:14:36;11.00;67.90
3548;DHT22;1788;49.400;11.092;2023-11-21T00:17:03;11.00;67.90
3548;DHT22;1788;49.400;11.092;2023-11-21T00:19:29;11.00;67.90
3548;DHT22;1788;49.400;11.092;2023-11-21T00:21:56;11.00;67.90
3548;DHT22;1788;49.400;11.092;2023-11-21T00:24:24;11.00;67.90
3548;DHT22;1788;49.400;11.092;2023-11-21T00:26:50;11.00;67.90
3548;DHT22;1788;49.400;11.092;2023-11-21T00:29:17;11.00;68.00
3548;DHT22;1788;49.400;11.092;2023-11-21T00:31:43;11.00;68.00
3548;DHT22;1788;49.400;11.092;2023-11-21T00:34:11;11.00;68.10
3548;DHT22;1788;49.400;11.092;2023-11-21T00:36:36;10.90;68.10
3548;DHT22;1788;49.400;11.092;2023-11-21T00:39:03;10.90;68.10
3548;DHT22;1788;49.400;11.092;2023-11-21T00:41:30;10.90;68.20
3548;DHT22;1788;49.400;11.092;2023-11-21T00:43:57;10.90;68.30
3548;DHT22;1788;49.400;11.092;2023-11-21T00:46:24;10.90;68.30
3548;DHT22;1788;49.400;11.092;2023-11-21T00:48:50;10.90;68.30
3548;DHT22;1788;49.400;11.092;2023-11-21T00:51:17;10.90;68.40
3548;DHT22;1788;49.400;11.092;2023-11-21T00:53:44;10.90;68.40
3548;DHT22;1788;49.400;11.092;2023-11-21T00:56:10;10.90;68.50
3548;DHT22;1788;49.400;11.092;2023-11-21T00:58:37;10.80;68.50
3548;DHT22;1788;49.400;11.092;2023-11-21T01:01:04;10.80;68.50
3548;DHT22;1788;49.400;11.092;2023-11-21T01:03:30;10.80;68.60
3548;DHT22;1788;49.400;11.092;2023-11-21T01:05:57;10.70;68.70
3548;DHT22;1788;49.400;11.092;2023-11-21T01:08:24;10.70;68.70
3548;DHT22;1788;49.400;11.092;2023-11-21T01:10:51;10.60;69.00
3548;DHT22;1788;49.400;11.092;2023-11-21T01:13:21;10.60;69.00
3548;DHT22;1788;49.400;11.092;2023-11-21T01:15:47;10.60;69.10
3548;DHT22;1788;49.400;11.092;2023-11-21T01:18:15;10.60;69.20
3548;DHT22;1788;49.400;11.092;2023-11-21T01:20:42;10.60;69.30
3548;DHT22;1788;49.400;11.092;2023-11-21T01:23:08;10.60;69.30
3548;DHT22;1788;49.400;11.092;2023-11-21T01:25:35;10.60;69.30
3548;DHT22;1788;49.400;11.092;2023-11-21T01:28:02;10.60;69.30
3548;DHT22;1788;49.400;11.092;2023-11-21T01:30:28;10.60;69.30
3548;DHT22;1788;49.400;11.092;2023-11-21T01:32:55;10.60;69.50
3548;DHT22;1788;49.400;11.092;2023-11-21T01:35:22;10.60;69.50
3548;DHT22;1788;49.400;11.092;2023-11-21T01:37:49;10.50;69.50
3548;DHT22;1788;49.400;11.092;2023-11-21T01:40:16;10.50;69.40
3548;DHT22;1788;49.400;11.092;2023-11-21T01:42:44;10.50;69.50
3548;DHT22;1788;49.400;11.092;2023-11-21T01:45:10;10.50;69.50
3548;DHT22;1788;49.400;11.092;2023-11-21T01:47:37;10.50;69.50
3548;DHT22;1788;49.400;11.092;2023-11-21T01:50:04;10.50;69.50
3548;DHT22;1788;49.400;11.092;2023-11-21T01:52:31;10.60;69.70
3548;DHT22;1788;49.400;11.092;2023-11-21T01:54:58;10.60;69.60
3548;DHT22;1788;49.400;11.092;2023-11-21T01:57:25;10.60;69.50
3548;DHT22;1788;49.400;11.092;2023-11-21T01:59:52;10.60;69.50
3548;DHT22;1788;49.400;11.092;2023-11-21T02:02:19;10.70;70.30
3548;DHT22;1788;49.400;11.092;2023-11-21T02:04:45;10.70;69.60
3548;DHT22;1788;49.400;11.092;2023-11-21T02:07:13;10.70;70.00
3548;DHT22;1788;49.400;11.092;2023-11-21T02:09:39;10.70;69.50
3548;DHT22;1788;49.400;11.092;2023-11-21T02:12:06;10.80;69.40
3548;DHT22;1788;49.400;11.092;2023-11-21T02:14:33;10.80;69.30
3548;DHT22;1788;49.400;11.092;2023-11-21T02:16:59;10.70;69.20
3548;DHT22;1788;49.400;11.092;2023-11-21T02:19:26;10.80;69.40
3548;DHT22;1788;49.400;11.092;2023-11-21T02:21:53;10.80;69.30
3548;DHT22;1788;49.400;11.092;2023-11-21T02:24:20;10.80;69.30
3548;DHT22;1788;49.400;11.092;2023-11-21T02:26:47;10.80;69.40
3548;DHT22;1788;49.400;11.092;2023-11-21T02:29:14;10.90;70.30
3548;DHT22;1788;49.400;11.092;2023-11-21T02:31:41;10.90;69.50
3548;DHT22;1788;49.400;11.092;2023-11-21T02:34:08;10.90;69.90
3548;DHT22;1788;49.400;11.092;2023-11-21T02:36:35;10.90;69.40
3548;DHT22;1788;49.400;11.092;2023-11-21T02:39:01;10.90;69.40
3548;DHT22;1788;49.400;11.092;2023-11-21T02:41:28;10.90;69.40
3548;DHT22;1788;49.400;11.092;2023-11-21T02:43:54;10.90;69.40
3548;DHT22;1788;49.400;11.092;2023-11-21T02:46:22;10.90;69.40
3548;DHT22;1788;49.400;11.092;2023-11-21T02:48:48;10.90;69.40
3548;DHT22;1788;49.400;11.092;2023-11-21T02:51:17;10.90;69.30
3548;DHT22;1788;49.400;11.092;2023-11-21T02:53:45;10.90;69.40
3548;DHT22;1788;49.400;11.092;2023-11-21T02:56:12;10.90;69.30
3548;DHT22;1788;49.400;11.092;2023-11-21T02:58:41;10.90;69.30
3548;DHT22;1788;49.400;11.092;2023-11-21T03:01:05;10.90;69.30
3548;DHT22;1788;49.400;11.092;2023-11-21T03:03:31;10.90;69.40
3548;DHT22;1788;49.400;11.092;2023-11-21T03:05:59;10.90;69.50
3548;DHT22;1788;49.400;11.092;2023-11-21T03:08:26;10.90;69.40
3548;DHT22;1788;49.400;11.092;2023-11-21T03:10:53;10.90;69.40
3548;DHT22;1788;49.400;11.092;2023-11-21T03:13:21;10.90;69.40
3548;DHT22;1788;49.400;11.092;2023-11-21T03:15:47;10.90;69.40
3548;DHT22;1788;49.400;11.092;2023-11-21T03:18:14;10.90;69.40
3548;DHT22;1788;49.400;11.092;2023-11-21T03:20:41;11.00;69.40
3548;DHT22;1788;49.400;11.092;2023-11-21T03:23:07;11.00;69.40
3548;DHT22;1788;49.400;11.092;2023-11-21T03:25:34;11.00;69.40
3548;DHT22;1788;49.400;11.092;2023-11-21T03:28:00;11.00;69.40
3548;DHT22;1788;49.400;11.092;2023-11-21T03:30:27;11.00;69.40
3548;DHT22;1788;49.400;11.092;2023-11-21T03:32:54;11.00;69.90
3548;DHT22;1788;49.400;11.092;2023-11-21T03:35:21;11.00;69.40
3548;DHT22;1788;49.400;11.092;2023-11-21T03:37:48;11.00;69.30
3548;DHT22;1788;49.400;11.092;2023-11-21T03:40:14;11.00;69.30
3548;DHT22;1788;49.400;11.092;2023-11-21T03:42:41;11.00;69.30
3548;DHT22;1788;49.400;11.092;2023-11-21T03:45:08;11.00;69.30
3548;DHT22;1788;49.400;11.092;2023-11-21T03:47:35;11.00;69.30
3548;DHT22;1788;49.400;11.092;2023-11-21T03:50:02;11.00;69.30
3548;DHT22;1788;49.400;11.092;2023-11-21T03:52:29;11.00;69.30
3548;DHT22;1788;49.400;11.092;2023-11-21T03:54:55;11.00;69.40
3548;DHT22;1788;49.400;11.092;2023-11-21T03:57:22;11.00;69.50
3548;DHT22;1788;49.400;11.092;2023-11-21T03:59:49;10.90;70.10
3548;DHT22;1788;49.400;11.092;2023-11-21T04:02:16;10.90;69.50
3548;DHT22;1788;49.400;11.092;2023-11-21T04:04:43;10.90;69.50
3548;DHT22;1788;49.400;11.092;2023-11-21T04:07:11;10.80;69.60
3548;DHT22;1788;49.400;11.092;2023-11-21T04:09:38;10.80;69.60
3548;DHT22;1788;49.400;11.092;2023-11-21T04:12:05;10.80;69.60
3548;DHT22;1788;49.400;11.092;2023-11-21T04:14:32;10.70;69.60
3548;DHT22;1788;49.400;11.092;2023-11-21T04:16:59;10.70;70.30
3548;DHT22;1788;49.400;11.092;2023-11-21T04:19:25;10.70;69.70
3548;DHT22;1788;49.400;11.092;2023-11-21T04:21:52;10.70;69.80
3548;DHT22;1788;49.400;11.092;2023-11-21T04:24:18;10.70;69.80
3548;DHT22;1788;49.400;11.092;2023-11-21T04:26:45;10.70;69.70
3548;DHT22;1788;49.400;11.092;2023-11-21T04:29:12;10.70;69.70
3548;DHT22;1788;49.400;11.092;2023-11-21T04:31:38;10.80;69.80
3548;DHT22;1788;49.400;11.092;2023-11-21T04:34:05;10.80;69.80
3548;DHT22;1788;49.400;11.092;2023-11-21T04:36:32;10.80;69.70
3548;DHT22;1788;49.400;11.092;2023-11-21T04:39:00;10.80;69.70
3548;DHT22;1788;49.400;11.092;2023-11-21T04:41:27;10.80;70.40
3548;DHT22;1788;49.400;11.092;2023-11-21T04:43:54;10.80;69.60
3548;DHT22;1788;49.400;11.092;2023-11-21T04:46:20;10.80;69.50
3548;DHT22;1788;49.400;11.092;2023-11-21T04:48:47;10.90;69.60
3548;DHT22;1788;49.400;11.092;2023-11-21T04:51:13;10.90;69.60
3548;DHT22;1788;49.400;11.092;2023-11-21T04:53:41;10.90;69.50
3548;DHT22;1788;49.400;11.092;2023-11-21T04:56:07;10.90;69.50
3548;DHT22;1788;49.400;11.092;2023-11-21T04:58:35;10.90;69.60
3548;DHT22;1788;49.400;11.092;2023-11-21T05:01:02;10.90;69.50
3548;DHT22;1788;49.400;11.092;2023-11-21T05:03:29;10.90;69.50
3548;DHT22;1788;49.400;11.092;2023-11-21T05:05:56;10.90;69.50
3548;DHT22;1788;49.400;11.092;2023-11-21T05:08:24;10.90;69.50
3548;DHT22;1788;49.400;11.092;2023-11-21T05:10:51;10.90;69.50
3548;DHT22;1788;49.400;11.092;2023-11-21T05:13:17;11.00;69.50
3548;DHT22;1788;49.400;11.092;2023-11-21T05:15:45;11.00;69.50
3548;DHT22;1788;49.400;11.092;2023-11-21T05:18:12;10.90;69.30
3548;DHT22;1788;49.400;11.092;2023-11-21T05:20:39;11.00;70.30
3548;DHT22;1788;49.400;11.092;2023-11-21T05:23:06;11.00;69.50
3548;DHT22;1788;49.400;11.092;2023-11-21T05:25:33;11.00;69.50
3548;DHT22;1788;49.400;11.092;2023-11-21T05:27:59;10.90;69.40
3548;DHT22;1788;49.400;11.092;2023-11-21T05:30:26;10.90;69.50
3548;DHT22;1788;49.400;11.092;2023-11-21T05:32:53;10.90;69.50
3548;DHT22;1788;49.400;11.092;2023-11-21T05:35:20;10.90;69.50
3548;DHT22;1788;49.400;11.092;2023-11-21T05:37:47;10.90;69.50
3548;DHT22;1788;49.400;11.092;2023-11-21T05:40:14;10.90;69.60
3548;DHT22;1788;49.400;11.092;2023-11-21T05:42:40;10.90;69.60
3548;DHT22;1788;49.400;11.092;2023-11-21T05:45:07;10.90;69.70
3548;DHT22;1788;49.400;11.092;2023-11-21T05:47:33;10.90;69.70
3548;DHT22;1788;49.400;11.092;2023-11-21T05:50:00;10.90;69.70
3548;DHT22;1788;49.400;11.092;2023-11-21T05:52:27;10.90;69.70
3548;DHT22;1788;49.400;11.092;2023-11-21T05:54:53;10.90;69.70
3548;DHT22;1788;49.400;11.092;2023-11-21T05:57:20;10.90;69.60
3548;DHT22;1788;49.400;11.092;2023-11-21T05:59:46;10.90;69.60
3548;DHT22;1788;49.400;11.092;2023-11-21T06:02:13;10.90;69.60
3548;DHT22;1788;49.400;11.092;2023-11-21T06:04:40;10.90;69.60
3548;DHT22;1788;49.400;11.092;2023-11-21T06:07:07;10.90;69.60
3548;DHT22;1788;49.400;11.092;2023-11-21T06:09:34;10.90;69.60
3548;DHT22;1788;49.400;11.092;2023-11-21T06:12:01;10.90;69.60
3548;DHT22;1788;49.400;11.092;2023-11-21T06:14:28;10.90;69.60
3548;DHT22;1788;49.400;11.092;2023-11-21T06:16:54;10.90;69.60
3548;DHT22;1788;49.400;11.092;2023-11-21T06:19:21;10.90;69.60
3548;DHT22;1788;49.400;11.092;2023-11-21T06:21:47;10.90;69.60
3548;DHT22;1788;49.400;11.092;2023-11-21T06:24:14;10.90;69.60
3548;DHT22;1788;49.400;11.092;2023-11-21T06:26:41;10.90;69.60
3548;DHT22;1788;49.400;11.092;2023-11-21T06:29:07;10.90;69.60
3548;DHT22;1788;49.400;11.092;2023-11-21T06:31:35;10.90;69.60
3548;DHT22;1788;49.400;11.092;2023-11-21T06:34:01;10.90;69.60
3548;DHT22;1788;49.400;11.092;2023-11-21T06:36:28;10.90;69.60
3548;DHT22;1788;49.400;11.092;2023-11-21T06:38:54;10.90;69.60
3548;DHT22;1788;49.400;11.092;2023-11-21T06:41:21;10.90;69.60
3548;DHT22;1788;49.400;11.092;2023-11-21T06:43:48;10.90;69.70
3548;DHT22;1788;49.400;11.092;2023-11-21T06:46:15;10.90;69.60
3548;DHT22;1788;49.400;11.092;2023-11-21T06:48:43;10.90;69.70
3548;DHT22;1788;49.400;11.092;2023-11-21T06:51:09;10.90;69.70
3548;DHT22;1788;49.400;11.092;2023-11-21T06:53:37;10.90;69.70
3548;DHT22;1788;49.400;11.092;2023-11-21T06:56:03;10.90;69.70
3548;DHT22;1788;49.400;11.092;2023-11-21T06:58:30;10.90;69.70
3548;DHT22;1788;49.400;11.092;2023-11-21T07:00:56;10.90;69.70
3548;DHT22;1788;49.400;11.092;2023-11-21T07:03:23;10.90;69.70
3548;DHT22;1788;49.400;11.092;2023-11-21T07:05:50;10.90;69.90
3548;DHT22;1788;49.400;11.092;2023-11-21T07:08:17;10.90;69.80
3548;DHT22;1788;49.400;11.092;2023-11-21T07:10:44;10.90;69.90
3548;DHT22;1788;49.400;11.092;2023-11-21T07:13:11;10.90;69.80
3548;DHT22;1788;49.400;11.092;2023-11-21T07:15:38;10.90;69.80
3548;DHT22;1788;49.400;11.092;2023-11-21T07:18:04;11.00;69.80
3548;DHT22;1788;49.400;11.092;2023-11-21T07:20:31;11.00;69.80
3548;DHT22;1788;49.400;11.092;2023-11-21T07:22:58;11.00;69.90
3548;DHT22;1788;49.400;11.092;2023-11-21T07:25:25;11.00;69.90
3548;DHT22;1788;49.400;11.092;2023-11-21T07:27:52;11.00;69.90
3548;DHT22;1788;49.400;11.092;2023-11-21T07:30:19;11.00;69.90
3548;DHT22;1788;49.400;11.092;2023-11-21T07:32:46;11.00;69.90
3548;DHT22;1788;49.400;11.092;2023-11-21T07:35:13;11.10;70.00
3548;DHT22;1788;49.400;11.092;2023-11-21T07:37:39;11.00;69.90
3548;DHT22;1788;49.400;11.092;2023-11-21T07:40:06;11.10;70.00
3548;DHT22;1788;49.400;11.092;2023-11-21T07:42:33;11.10;70.20
3548;DHT22;1788;49.400;11.092;2023-11-21T07:45:00;11.10;70.00
3548;DHT22;1788;49.400;11.092;2023-11-21T07:47:26;11.10;70.00
3548;DHT22;1788;49.400;11.092;2023-11-21T07:49:53;11.20;70.00
3548;DHT22;1788;49.400;11.092;2023-11-21T07:52:20;11.20;70.00
3548;DHT22;1788;49.400;11.092;2023-11-21T07:54:46;11.20;70.00
3548;DHT22;1788;49.400;11.092;2023-11-21T07:57:13;11.20;70.00
3548;DHT22;1788;49.400;11.092;2023-11-21T07:59:40;11.30;70.10
3548;DHT22;1788;49.400;11.092;2023-11-21T08:02:06;11.30;70.10
3548;DHT22;1788;49.400;11.092;2023-11-21T08:04:33;11.30;70.00
3548;DHT22;1788;49.400;11.092;2023-11-21T08:07:00;11.30;70.00
3548;DHT22;1788;49.400;11.092;2023-11-21T08:09:27;11.40;70.20
3548;DHT22;1788;49.400;11.092;2023-11-21T08:11:54;11.40;70.90
3548;DHT22;1788;49.400;11.092;2023-11-21T08:14:21;11.40;70.10
3548;DHT22;1788;49.400;11.092;2023-11-21T08:16:47;11.50;70.30
3548;DHT22;1788;49.400;11.092;2023-11-21T08:19:14;11.50;70.40
3548;DHT22;1788;49.400;11.092;2023-11-21T08:21:41;11.60;70.10
3548;DHT22;1788;49.400;11.092;2023-11-21T08:24:08;11.60;70.10
3548;DHT22;1788;49.400;11.092;2023-11-21T08:26:35;11.70;70.70
3548;DHT22;1788;49.400;11.092;2023-11-21T08:29:02;11.60;69.90
3548;DHT22;1788;49.400;11.092;2023-11-21T08:31:28;11.70;70.00
3548;DHT22;1788;49.400;11.092;2023-11-21T08:33:55;11.70;70.00
3548;DHT22;1788;49.400;11.092;2023-11-21T08:36:22;11.70;69.90
3548;DHT22;1788;49.400;11.092;2023-11-21T08:38:49;11.70;69.80
3548;DHT22;1788;49.400;11.092;2023-11-21T08:41:16;11.70;69.80
3548;DHT22;1788;49.400;11.092;2023-11-21T08:43:43;11.80;69.80
3548;DHT22;1788;49.400;11.092;2023-11-21T08:46:10;11.70;69.70
3548;DHT22;1788;49.400;11.092;2023-11-21T08:48:37;11.80;70.50
3548;DHT22;1788;49.400;11.092;2023-11-21T08:51:04;11.80;69.80
3548;DHT22;1788;49.400;11.092;2023-11-21T08:53:30;11.80;69.80
3548;DHT22;1788;49.400;11.092;2023-11-21T08:55:57;11.80;69.70
3548;DHT22;1788;49.400;11.092;2023-11-21T08:58:23;11.80;70.60
3548;DHT22;1788;49.400;11.092;2023-11-21T09:00:51;11.90;69.80
3548;DHT22;1788;49.400;11.092;2023-11-21T09:03:18;11.90;69.80
3548;DHT22;1788;49.400;11.092;2023-11-21T09:05:44;11.90;69.70
3548;DHT22;1788;49.400;11.092;2023-11-21T09:08:11;11.90;69.60
3548;DHT22;1788;49.400;11.092;2023-11-21T09:10:38;11.90;69.50
3548;DHT22;1788;49.400;11.092;2023-11-21T09:13:04;11.90;69.60
3548;DHT22;1788;49.400;11.092;2023-11-21T09:15:31;11.90;69.50
3548;DHT22;1788;49.400;11.092;2023-11-21T09:17:57;12.00;69.60
3548;DHT22;1788;49.400;11.092;2023-11-21T09:20:25;12.00;69.60
3548;DHT22;1788;49.400;11.092;2023-11-21T09:22:51;12.00;69.50
3548;DHT22;1788;49.400;11.092;2023-11-21T09:25:19;12.00;69.60
3548;DHT22;1788;49.400;11.092;2023-11-21T09:27:45;12.00;69.60
3548;DHT22;1788;49.400;11.092;2023-11-21T09:30:12;12.10;69.70
3548;DHT22;1788;49.400;11.092;2023-11-21T09:32:39;12.10;69.60
3548;DHT22;1788;49.400;11.092;2023-11-21T09:35:05;12.10;69.60
3548;DHT22;1788;49.400;11.092;2023-11-21T09:37:33;12.10;69.60
3548;DHT22;1788;49.400;11.092;2023-11-21T09:39:59;12.10;69.60
3548;DHT22;1788;49.400;11.092;2023-11-21T09:42:30;12.10;69.70
3548;DHT22;1788;49.400;11.092;2023-11-21T09:47:20;12.10;69.60
3548;DHT22;1788;49.400;11.092;2023-11-21T09:49:47;12.10;69.50
3548;DHT22;1788;49.400;11.092;2023-11-21T09:54:40;12.10;69.50
3548;DHT22;1788;49.400;11.092;2023-11-21T09:57:07;12.10;69.50
3548;DHT22;1788;49.400;11.092;2023-11-21T09:59:34;12.10;69.70
3548;DHT22;1788;49.400;11.092;2023-11-21T10:02:01;12.10;69.60
3548;DHT22;1788;49.400;11.092;2023-11-21T10:04:28;12.10;69.50
3548;DHT22;1788;49.400;11.092;2023-11-21T10:06:54;12.20;69.60
3548;DHT22;1788;49.400;11.092;2023-11-21T10:09:21;12.20;69.50
3548;DHT22;1788;49.400;11.092;2023-11-21T10:11:48;12.20;69.30
3548;DHT22;1788;49.400;11.092;2023-11-21T10:14:14;12.30;69.40
3548;DHT22;1788;49.400;11.092;2023-11-21T10:16:41;12.30;69.30
3548;DHT22;1788;49.400;11.092;2023-11-21T10:19:09;12.30;69.40
3548;DHT22;1788;49.400;11.092;2023-11-21T10:21:35;12.30;69.50
3548;DHT22;1788;49.400;11.092;2023-11-21T10:24:01;12.30;69.50
3548;DHT22;1788;49.400;11.092;2023-11-21T10:26:29;12.30;69.60
3548;DHT22;1788;49.400;11.092;2023-11-21T10:28:57;12.30;69.60
3548;DHT22;1788;49.400;11.092;2023-11-21T10:31:23;12.40;69.60
3548;DHT22;1788;49.400;11.092;2023-11-21T10:33:50;12.40;69.50
3548;DHT22;1788;49.400;11.092;2023-11-21T10:38:43;12.50;69.60
3548;DHT22;1788;49.400;11.092;2023-11-21T10:43:37;12.50;69.40
3548;DHT22;1788;49.400;11.092;2023-11-21T10:46:04;12.50;69.30
3548;DHT22;1788;49.400;11.092;2023-11-21T10:48:30;12.50;69.20
3548;DHT22;1788;49.400;11.092;2023-11-21T10:50:58;12.50;69.10
3548;DHT22;1788;49.400;11.092;2023-11-21T10:53:28;12.60;69.20
3548;DHT22;1788;49.400;11.092;2023-11-21T10:55:55;12.60;69.10
3548;DHT22;1788;49.400;11.092;2023-11-21T10:58:18;12.60;69.00
3548;DHT22;1788;49.400;11.092;2023-11-21T11:00:45;12.60;69.00
3548;DHT22;1788;49.400;11.092;2023-11-21T11:03:11;12.70;69.00
3548;DHT22;1788;49.400;11.092;2023-11-21T11:05:38;12.70;68.90
3548;DHT22;1788;49.400;11.092;2023-11-21T11:08:06;12.70;68.80
3548;DHT22;1788;49.400;11.092;2023-11-21T11:10:32;12.70;68.80
3548;DHT22;1788;49.400;11.092;2023-11-21T11:12:59;12.70;68.70
3548;DHT22;1788;49.400;11.092;2023-11-21T11:15:26;12.80;68.70
3548;DHT22;1788;49.400;11.092;2023-11-21T11:17:52;12.80;68.70
3548;DHT22;1788;49.400;11.092;2023-11-21T11:20:20;12.80;68.40
3548;DHT22;1788;49.400;11.092;2023-11-21T11:30:10;12.70;68.20
3548;DHT22;1788;49.400;11.092;2023-11-21T11:37:26;12.80;68.30
3548;DHT22;1788;49.400;11.092;2023-11-21T11:39:53;12.80;68.20
3548;DHT22;1788;49.400;11.092;2023-11-21T11:42:20;12.80;68.00
3548;DHT22;1788;49.400;11.092;2023-11-21T11:44:47;12.80;68.00
3548;DHT22;1788;49.400;11.092;2023-11-21T11:47:13;12.90;68.00
3548;DHT22;1788;49.400;11.092;2023-11-21T11:57:00;12.90;67.80
3548;DHT22;1788;49.400;11.092;2023-11-21T11:59:28;12.90;68.50
3548;DHT22;1788;49.400;11.092;2023-11-21T12:01:54;12.90;67.70
3548;DHT22;1788;49.400;11.092;2023-11-21T12:04:23;12.90;67.70
3548;DHT22;1788;49.400;11.092;2023-11-21T12:06:51;12.90;67.60
3548;DHT22;1788;49.400;11.092;2023-11-21T12:11:42;12.90;67.50
3548;DHT22;1788;49.400;11.092;2023-11-21T12:14:09;12.90;67.50
3548;DHT22;1788;49.400;11.092;2023-11-21T12:16:35;12.90;67.40
3548;DHT22;1788;49.400;11.092;2023-11-21T12:19:02;12.80;67.20
3548;DHT22;1788;49.400;11.092;2023-11-21T12:21:29;12.80;67.10
3548;DHT22;1788;49.400;11.092;2023-11-21T12:23:55;12.80;67.00
3548;DHT22;1788;49.400;11.092;2023-11-21T12:26:23;12.80;67.00
3548;DHT22;1788;49.400;11.092;2023-11-21T12:31:15;12.70;67.00
3548;DHT22;1788;49.400;11.092;2023-11-21T12:33:42;12.70;67.00
3548;DHT22;1788;49.400;11.092;2023-11-21T12:36:08;12.60;66.80
3548;DHT22;1788;49.400;11.092;2023-11-21T12:38:36;12.60;66.90
3548;DHT22;1788;49.400;11.092;2023-11-21T12:41:05;12.60;67.00
3548;DHT22;1788;49.400;11.092;2023-11-21T12:43:31;12.60;67.00
3548;DHT22;1788;49.400;11.092;2023-11-21T12:48:25;12.50;66.90
3548;DHT22;1788;49.400;11.092;2023-11-21T12:50:51;12.50;66.90
3548;DHT22;1788;49.400;11.092;2023-11-21T12:53:18;12.40;66.90
3548;DHT22;1788;49.400;11.092;2023-11-21T12:55:45;12.40;67.00
3548;DHT22;1788;49.400;11.092;2023-11-21T12:58:11;12.40;67.00
3548;DHT22;1788;49.400;11.092;2023-11-21T13:03:05;12.50;67.20
3548;DHT22;1788;49.400;11.092;2023-11-21T13:07:59;12.50;66.90
3548;DHT22;1788;49.400;11.092;2023-11-21T13:10:25;12.50;66.90
3548;DHT22;1788;49.400;11.092;2023-11-21T13:12:51;12.50;66.90
3548;DHT22;1788;49.400;11.092;2023-11-21T13:15:18;12.50;67.00
3548;DHT22;1788;49.400;11.092;2023-11-21T13:17:45;12.50;67.00
3548;DHT22;1788;49.400;11.092;2023-11-21T13:20:12;12.50;67.20
3548;DHT22;1788;49.400;11.092;2023-11-21T13:22:39;12.50;67.20
3548;DHT22;1788;49.400;11.092;2023-11-21T13:25:06;12.50;67.00
3548;DHT22;1788;49.400;11.092;2023-11-21T13:27:33;12.50;66.90
3548;DHT22;1788;49.400;11.092;2023-11-21T13:30:00;12.50;66.90
3548;DHT22;1788;49.400;11.092;2023-11-21T13:32:26;12.50;66.90
3548;DHT22;1788;49.400;11.092;2023-11-21T13:34:53;12.50;66.90
3548;DHT22;1788;49.400;11.092;2023-11-21T13:37:19;12.40;67.60
3548;DHT22;1788;49.400;11.092;2023-11-21T13:39:47;12.40;66.90
3548;DHT22;1788;49.400;11.092;2023-11-21T13:42:13;12.40;66.80
3548;DHT22;1788;49.400;11.092;2023-11-21T13:44:40;12.40;66.80
3548;DHT22;1788;49.400;11.092;2023-11-21T13:47:07;12.30;66.70
3548;DHT22;1788;49.400;11.092;2023-11-21T13:49:33;12.30;66.80
3548;DHT22;1788;49.400;11.092;2023-11-21T13:52:01;12.30;66.60
3548;DHT22;1788;49.400;11.092;2023-11-21T13:54:27;12.30;66.60
3548;DHT22;1788;49.400;11.092;2023-11-21T13:56:55;12.30;66.50
3548;DHT22;1788;49.400;11.092;2023-11-21T13:59:21;12.30;66.50
3548;DHT22;1788;49.400;11.092;2023-11-21T14:01:48;12.40;66.60
3548;DHT22;1788;49.400;11.092;2023-11-21T14:04:14;12.40;66.40
3548;DHT22;1788;49.400;11.092;2023-11-21T14:06:42;12.50;66.70
3548;DHT22;1788;49.400;11.092;2023-11-21T14:09:08;13.00;66.90
3548;DHT22;1788;49.400;11.092;2023-11-21T14:11:34;13.90;65.60
3548;DHT22;1788;49.400;11.092;2023-11-21T14:14:02;14.20;64.20
3548;DHT22;1788;49.400;11.092;2023-11-21T14:16:28;14.20;63.80
3548;DHT22;1788;49.400;11.092;2023-11-21T14:18:55;14.10;63.60
3548;DHT22;1788;49.400;11.092;2023-11-21T14:21:22;13.90;63.40
3548;DHT22;1788;49.400;11.092;2023-11-21T14:23:48;13.80;64.40
3548;DHT22;1788;49.400;11.092;2023-11-21T14:26:15;13.70;63.80
3548;DHT22;1788;49.400;11.092;2023-11-21T14:28:41;13.70;64.00
3548;DHT22;1788;49.400;11.092;2023-11-21T14:31:08;13.60;64.00
3548;DHT22;1788;49.400;11.092;2023-11-21T14:33:35;13.50;64.00
3548;DHT22;1788;49.400;11.092;2023-11-21T14:36:01;13.50;64.10
3548;DHT22;1788;49.400;11.092;2023-11-21T14:38:28;13.40;64.00
3548;DHT22;1788;49.400;11.092;2023-11-21T14:40:55;13.40;64.00
3548;DHT22;1788;49.400;11.092;2023-11-21T14:43:22;13.30;63.90
3548;DHT22;1788;49.400;11.092;2023-11-21T14:45:48;13.20;63.80
3548;DHT22;1788;49.400;11.092;2023-11-21T14:48:16;13.10;63.90
3548;DHT22;1788;49.400;11.092;2023-11-21T14:50:42;13.10;63.90
3548;DHT22;1788;49.400;11.092;2023-11-21T14:53:10;13.10;64.10
3548;DHT22;1788;49.400;11.092;2023-11-21T14:55:36;13.10;64.20
3548;DHT22;1788;49.400;11.092;2023-11-21T14:58:02;13.20;64.20
3548;DHT22;1788;49.400;11.092;2023-11-21T15:00:30;13.20;63.80
3548;DHT22;1788;49.400;11.092;2023-11-21T15:02:56;13.20;63.80
3548;DHT22;1788;49.400;11.092;2023-11-21T15:05:24;13.10;64.10
3548;DHT22;1788;49.400;11.092;2023-11-21T15:07:50;13.00;63.40
3548;DHT22;1788;49.400;11.092;2023-11-21T15:10:17;13.00;63.50
3548;DHT22;1788;49.400;11.092;2023-11-21T15:12:44;12.90;63.50
3548;DHT22;1788;49.400;11.092;2023-11-21T15:15:10;12.80;63.50
3548;DHT22;1788;49.400;11.092;2023-11-21T15:17:37;12.80;63.50
3548;DHT22;1788;49.400;11.092;2023-11-21T15:20:04;12.70;63.50
3548;DHT22;1788;49.400;11.092;2023-11-21T15:22:31;12.60;63.50
3548;DHT22;1788;49.400;11.092;2023-11-21T15:24:57;12.50;63.50
3548;DHT22;1788;49.400;11.092;2023-11-21T15:27:24;12.50;63.60
3548;DHT22;1788;49.400;11.092;2023-11-21T15:29:51;12.40;63.60
3548;DHT22;1788;49.400;11.092;2023-11-21T15:32:17;12.30;63.60
3548;DHT22;1788;49.400;11.092;2023-11-21T15:34:45;12.20;63.80
3548;DHT22;1788;49.400;11.092;2023-11-21T15:37:11;12.20;63.70
3548;DHT22;1788;49.400;11.092;2023-11-21T15:39:38;12.20;63.80
3548;DHT22;1788;49.400;11.092;2023-11-21T15:42:04;12.20;63.70
3548;DHT22;1788;49.400;11.092;2023-11-21T15:44:31;12.10;63.70
3548;DHT22;1788;49.400;11.092;2023-11-21T15:46:58;12.00;63.80
3548;DHT22;1788;49.400;11.092;2023-11-21T15:49:24;11.90;63.80
3548;DHT22;1788;49.400;11.092;2023-11-21T15:51:51;11.90;63.90
3548;DHT22;1788;49.400;11.092;2023-11-21T15:56:45;11.80;64.00
3548;DHT22;1788;49.400;11.092;2023-11-21T15:59:11;11.80;64.00
3548;DHT22;1788;49.400;11.092;2023-11-21T16:01:38;11.80;64.10
3548;DHT22;1788;49.400;11.092;2023-11-21T16:04:05;11.70;64.00
3548;DHT22;1788;49.400;11.092;2023-11-21T16:06:31;11.70;64.00
3548;DHT22;1788;49.400;11.092;2023-11-21T16:08:59;11.70;64.20
3548;DHT22;1788;49.400;11.092;2023-11-21T16:11:25;11.70;64.10
3548;DHT22;1788;49.400;11.092;2023-11-21T16:13:53;11.70;64.20
3548;DHT22;1788;49.400;11.092;2023-11-21T16:16:20;11.70;64.20
3548;DHT22;1788;49.400;11.092;2023-11-21T16:18:46;11.70;64.30
3548;DHT22;1788;49.400;11.092;2023-11-21T16:21:13;11.60;64.10
3548;DHT22;1788;49.400;11.092;2023-11-21T16:23:39;11.70;64.30
3548;DHT22;1788;49.400;11.092;2023-11-21T16:26:06;11.60;64.20